createdAt,value
2022-11-25T00:01:24.768Z,96208.34
2022-11-25T00:03:53.451Z,96213.19
2022-11-25T00:06:28.381Z,96216.47
2022-11-25T00:08:59.993Z,96216.09
2022-11-25T00:11:27.359Z,96212.56
2022-11-25T00:13:55.307Z,96221.78
2022-11-25T00:16:24.367Z,96225.06
2022-11-25T00:18:52.154Z,96227.47
2022-11-25T00:21:21.335Z,96236.09
2022-11-25T00:23:56.970Z,96231.50
2022-11-25T00:26:24.627Z,96232.94
2022-11-25T00:28:52.396Z,96225.88
2022-11-25T00:31:24.734Z,96226.25
2022-11-25T00:33:52.136Z,96237.50
2022-11-25T00:36:19.064Z,96223.09
2022-11-25T00:38:45.953Z,96229.03
2022-11-25T00:41:31.886Z,96231.44
2022-11-25T00:44:17.219Z,96230.47
2022-11-25T00:46:44.322Z,96238.22
2022-11-25T00:49:10.905Z,96234.47
2022-11-25T00:51:37.511Z,96229.00
2022-11-25T00:54:04.186Z,96225.28
2022-11-25T00:56:31.061Z,96225.13
2022-11-25T00:58:58.461Z,96223.06
2022-11-25T01:01:25.160Z,96226.47
2022-11-25T01:03:52.525Z,96221.00
2022-11-25T01:06:22.198Z,96226.09
2022-11-25T01:08:48.858Z,96227.66
2022-11-25T01:11:19.252Z,96229.50
2022-11-25T01:13:46.025Z,96229.22
2022-11-25T01:16:15.750Z,96232.63
2022-11-25T01:18:43.162Z,96221.22
2022-11-25T01:21:18.740Z,96229.72
2022-11-25T01:23:46.573Z,96219.75
2022-11-25T01:26:15.824Z,96220.47
2022-11-25T01:28:44.742Z,96219.50
2022-11-25T01:31:20.487Z,96225.69
2022-11-25T01:33:51.954Z,96222.91
2022-11-25T01:36:19.352Z,96225.28
2022-11-25T01:38:53.974Z,96230.53
2022-11-25T01:41:21.807Z,96234.03
2022-11-25T01:44:06.940Z,96238.28
2022-11-25T01:47:10.723Z,96241.53
2022-11-25T01:49:42.922Z,96236.06
2022-11-25T01:52:29.803Z,96234.13
2022-11-25T01:55:01.752Z,96232.31
2022-11-25T01:57:32.104Z,96221.47
2022-11-25T02:00:00.661Z,96219.53
2022-11-25T02:02:28.277Z,96217.72
2022-11-25T02:04:59.393Z,96221.81
2022-11-25T02:10:16.158Z,96220.84
2022-11-25T02:12:44.843Z,96223.25
2022-11-25T02:15:12.344Z,96218.63
2022-11-25T02:17:39.097Z,96221.03
2022-11-25T02:20:15.973Z,96218.34
2022-11-25T02:22:51.289Z,96209.50
2022-11-25T02:25:23.489Z,96213.16
2022-11-25T02:27:54.318Z,96204.28
2022-11-25T02:30:20.929Z,96207.94
2022-11-25T02:32:49.568Z,96209.06
2022-11-25T02:35:27.212Z,96207.47
2022-11-25T02:37:56.307Z,96212.94
2022-11-25T02:40:23.741Z,96217.56
2022-11-25T02:42:50.534Z,96216.13
2022-11-25T02:45:21.158Z,96210.94
2022-11-25T02:47:49.470Z,96203.03
2022-11-25T02:50:16.365Z,96199.66
2022-11-25T02:52:43.014Z,96199.06
2022-11-25T02:55:10.143Z,96196.63
2022-11-25T02:57:36.911Z,96194.09
2022-11-25T03:00:04.648Z,96189.00
2022-11-25T03:02:31.323Z,96183.06
2022-11-25T03:05:01.189Z,96178.94
2022-11-25T03:07:27.801Z,96181.88
2022-11-25T03:09:54.593Z,96169.88
2022-11-25T03:12:21.410Z,96178.13
2022-11-25T03:14:52.777Z,96175.72
2022-11-25T03:17:19.501Z,96178.66
2022-11-25T03:19:46.638Z,96182.56
2022-11-25T03:22:13.262Z,96182.75
2022-11-25T03:24:39.888Z,96185.94
2022-11-25T03:27:08.656Z,96184.22
2022-11-25T03:29:35.934Z,96193.47
2022-11-25T03:32:08.096Z,96191.19
2022-11-25T03:34:36.928Z,96168.16
2022-11-25T03:37:04.651Z,96188.03
2022-11-25T03:39:32.593Z,96180.41
2022-11-25T03:41:59.413Z,96175.19
2022-11-25T03:44:26.122Z,96186.13
2022-11-25T03:46:52.791Z,96181.00
2022-11-25T03:49:19.529Z,96187.56
2022-11-25T03:51:47.246Z,96178.22
2022-11-25T03:54:16.203Z,96186.25
2022-11-25T03:57:12.331Z,96184.19
2022-11-25T03:59:39.741Z,96195.69
2022-11-25T04:02:07.036Z,96198.75
2022-11-25T04:04:34.802Z,96195.34
2022-11-25T04:07:01.568Z,96191.13
2022-11-25T04:09:29.001Z,96187.72
2022-11-25T04:12:18.474Z,96186.25
2022-11-25T04:14:52.197Z,96187.34
2022-11-25T04:17:18.842Z,96184.91
2022-11-25T04:19:46.164Z,96196.63
2022-11-25T04:22:13.426Z,96202.13
2022-11-25T04:24:44.154Z,96204.91
2022-11-25T04:27:13.373Z,96199.91
2022-11-25T04:29:40.758Z,96193.00
2022-11-25T04:32:08.877Z,96198.44
2022-11-25T04:34:36.565Z,96181.09
2022-11-25T04:37:03.808Z,96182.22
2022-11-25T04:39:30.437Z,96189.25
2022-11-25T04:42:19.494Z,96192.88
2022-11-25T04:45:07.573Z,96190.31
2022-11-25T04:47:38.635Z,96188.75
2022-11-25T04:50:09.036Z,96187.03
2022-11-25T04:52:45.316Z,96184.50
2022-11-25T04:55:13.590Z,96183.78
2022-11-25T04:57:40.374Z,96183.91
2022-11-25T05:00:09.377Z,96177.94
2022-11-25T05:02:36.326Z,96182.31
2022-11-25T05:05:12.747Z,96181.56
2022-11-25T05:07:39.853Z,96181.81
2022-11-25T05:10:08.619Z,96179.28
2022-11-25T05:12:42.858Z,96180.25
2022-11-25T05:15:14.688Z,96197.19
2022-11-25T05:17:45.061Z,96184.81
2022-11-25T05:20:12.904Z,96177.94
2022-11-25T05:22:39.449Z,96176.25
2022-11-25T05:25:09.463Z,96174.66
2022-11-25T05:27:40.660Z,96183.50
2022-11-25T05:30:09.934Z,96187.13
2022-11-25T05:32:37.872Z,96178.50
2022-11-25T05:35:09.748Z,96179.34
2022-11-25T05:37:38.861Z,96188.34
2022-11-25T05:40:08.308Z,96195.50
2022-11-25T05:43:00.920Z,96190.28
2022-11-25T05:45:30.525Z,96194.88
2022-11-25T05:47:57.917Z,96203.81
2022-11-25T05:50:26.854Z,96199.56
2022-11-25T05:53:22.599Z,96190.97
2022-11-25T05:55:56.446Z,96199.94
2022-11-25T05:58:42.534Z,96204.28
2022-11-25T06:01:10.798Z,96210.59
2022-11-25T06:03:38.790Z,96213.25
2022-11-25T06:06:07.648Z,96215.28
2022-11-25T06:08:35.603Z,96210.88
2022-11-25T06:11:11.859Z,96213.56
2022-11-25T06:13:40.102Z,96211.03
2022-11-25T06:16:17.436Z,96211.13
2022-11-25T06:18:49.921Z,96211.25
2022-11-25T06:21:17.838Z,96209.53
2022-11-25T06:23:47.362Z,96205.28
2022-11-25T06:26:21.571Z,96207.13
2022-11-25T06:28:50.375Z,96202.88
2022-11-25T06:31:20.435Z,96192.81
2022-11-25T06:33:55.069Z,96211.13
2022-11-25T06:36:22.484Z,96203.88
2022-11-25T06:38:51.826Z,96212.38
2022-11-25T06:41:18.941Z,96202.16
2022-11-25T06:43:45.660Z,96206.88
2022-11-25T06:46:14.667Z,96203.47
2022-11-25T06:48:44.145Z,96193.06
2022-11-25T06:51:12.259Z,96200.31
2022-11-25T06:53:39.266Z,96199.59
2022-11-25T06:56:11.368Z,96205.88
2022-11-25T06:58:38.530Z,96196.41
2022-11-25T07:01:07.864Z,96201.63
2022-11-25T07:03:36.074Z,96194.72
2022-11-25T07:06:03.423Z,96209.00
2022-11-25T07:08:33.895Z,96215.16
2022-11-25T07:11:06.302Z,96223.25
2022-11-25T07:13:34.009Z,96228.59
2022-11-25T07:16:04.767Z,96228.72
2022-11-25T07:18:32.936Z,96224.34
2022-11-25T07:21:04.627Z,96222.66
2022-11-25T07:23:31.240Z,96224.59
2022-11-25T07:26:10.513Z,96217.56
2022-11-25T07:28:38.400Z,96223.00
2022-11-25T07:31:27.500Z,96221.31
2022-11-25T07:34:00.772Z,96225.91
2022-11-25T07:36:28.342Z,96221.53
2022-11-25T07:38:55.148Z,96226.00
2022-11-25T07:41:23.658Z,96233.25
2022-11-25T07:43:52.834Z,96236.75
2022-11-25T07:46:27.316Z,96233.38
2022-11-25T07:48:59.869Z,96242.34
2022-11-25T07:51:31.554Z,96238.16
2022-11-25T07:54:01.016Z,96238.16
2022-11-25T07:56:28.693Z,96241.81
2022-11-25T07:58:55.872Z,96246.28
2022-11-25T08:01:22.647Z,96252.56
2022-11-25T08:03:50.111Z,96246.50
2022-11-25T08:06:20.302Z,96246.50
2022-11-25T08:08:54.543Z,96247.47
2022-11-25T08:11:26.602Z,96251.94
2022-11-25T08:13:53.500Z,96249.41
2022-11-25T08:16:21.898Z,96256.50
2022-11-25T08:18:48.708Z,96257.38
2022-11-25T08:21:16.769Z,96259.41
2022-11-25T08:23:44.391Z,96261.94
2022-11-25T08:26:14.142Z,96262.28
2022-11-25T08:28:41.794Z,96267.41
2022-11-25T08:31:11.152Z,96261.22
2022-11-25T08:33:37.789Z,96265.69
2022-11-25T08:36:05.445Z,96279.97
2022-11-25T08:38:33.019Z,96272.94
2022-11-25T08:41:00.463Z,96277.41
2022-11-25T08:43:29.553Z,96282.09
2022-11-25T08:45:57.245Z,96291.81
2022-11-25T08:48:23.965Z,96295.41
2022-11-25T08:50:53.985Z,96288.38
2022-11-25T08:53:21.341Z,96296.34
2022-11-25T08:55:48.276Z,96307.00
2022-11-25T08:58:14.910Z,96300.84
2022-11-25T09:00:42.555Z,96306.25
2022-11-25T09:03:09.587Z,96309.91
2022-11-25T09:05:40.315Z,96300.44
2022-11-25T09:08:10.041Z,96311.94
2022-11-25T09:10:39.588Z,96312.13
2022-11-25T09:13:06.996Z,96319.06
2022-11-25T09:15:36.222Z,96316.41
2022-11-25T09:18:10.744Z,96308.69
2022-11-25T09:20:39.487Z,96319.16
2022-11-25T09:23:07.700Z,96308.59
2022-11-25T09:25:35.411Z,96312.22
2022-11-25T09:28:02.213Z,96303.19
2022-11-25T09:30:29.074Z,96311.59
2022-11-25T09:32:56.303Z,96313.72
2022-11-25T09:35:24.329Z,96318.47
2022-11-25T09:37:50.953Z,96331.47
2022-11-25T09:40:35.765Z,96324.97
2022-11-25T09:43:36.427Z,96322.94
2022-11-25T09:46:43.226Z,96320.88
2022-11-25T09:49:31.328Z,96331.22
2022-11-25T09:52:17.456Z,96323.97
2022-11-25T09:55:05.014Z,96330.03
2022-11-25T09:57:57.893Z,96329.78
2022-11-25T10:00:36.280Z,96324.38
2022-11-25T10:03:07.248Z,96324.25
2022-11-25T10:05:38.178Z,96316.16
2022-11-25T10:08:23.585Z,96316.91
2022-11-25T10:10:55.399Z,96313.41
2022-11-25T10:13:32.395Z,96312.31
2022-11-25T10:16:01.954Z,96315.72
2022-11-25T10:18:39.902Z,96317.44
2022-11-25T10:21:06.608Z,96316.56
2022-11-25T10:23:37.015Z,96319.00
2022-11-25T10:26:12.986Z,96312.69
2022-11-25T10:28:41.832Z,96308.34
2022-11-25T10:31:20.869Z,96310.78
2022-11-25T10:33:52.817Z,96307.16
2022-11-25T10:36:34.203Z,96306.19
2022-11-25T10:39:17.869Z,96304.38
2022-11-25T10:41:51.001Z,96310.44
2022-11-25T10:44:25.869Z,96304.13
2022-11-25T10:47:16.557Z,96304.06
2022-11-25T10:50:01.961Z,96303.13
2022-11-25T10:52:29.370Z,96306.63
2022-11-25T10:55:17.204Z,96308.19
2022-11-25T10:57:44.611Z,96305.44
2022-11-25T11:00:27.916Z,96298.28
2022-11-25T11:02:55.181Z,96292.94
2022-11-25T11:05:46.879Z,96292.94
2022-11-25T11:08:27.580Z,96292.22
2022-11-25T11:11:21.464Z,96285.94
2022-11-25T11:13:50.556Z,96281.56
2022-11-25T11:16:36.989Z,96282.41
2022-11-25T11:19:04.060Z,96272.94
2022-11-25T11:21:33.696Z,96278.88
2022-11-25T11:24:00.965Z,96282.75
2022-11-25T11:26:33.500Z,96282.19
2022-11-25T11:29:07.296Z,96280.97
2022-11-25T11:31:40.088Z,96277.06
2022-11-25T11:34:09.625Z,96278.25
2022-11-25T11:37:17.606Z,96280.38
2022-11-25T11:40:11.600Z,96284.13
2022-11-25T11:43:03.171Z,96276.25
2022-11-25T11:46:08.290Z,96280.84
2022-11-25T11:48:43.748Z,96278.28
2022-11-25T11:51:39.043Z,96281.09
2022-11-25T11:54:12.240Z,96290.13
2022-11-25T11:56:44.520Z,96275.97
2022-11-25T11:59:23.086Z,96280.44
2022-11-25T12:01:58.609Z,96289.38
2022-11-25T12:04:30.374Z,96294.94
2022-11-25T12:07:07.744Z,96290.34
2022-11-25T12:09:39.048Z,96296.63
2022-11-25T12:12:08.635Z,96289.63
2022-11-25T12:15:01.926Z,96298.56
2022-11-25T12:17:41.670Z,96298.56
2022-11-25T12:20:19.000Z,96289.72
2022-11-25T12:22:50.745Z,96300.38
2022-11-25T12:25:21.773Z,96291.41
2022-11-25T12:27:58.879Z,96293.03
2022-11-25T12:30:31.464Z,96289.84
2022-11-25T12:33:16.198Z,96288.16
2022-11-25T12:36:02.277Z,96287.72
2022-11-25T12:38:57.043Z,96294.34
2022-11-25T12:41:30.987Z,96290.28
2022-11-25T12:44:14.910Z,96286.47
2022-11-25T12:46:45.706Z,96286.47
2022-11-25T12:49:22.332Z,96281.34
2022-11-25T12:51:49.706Z,96285.09
2022-11-25T12:54:16.182Z,96289.78
2022-11-25T12:57:07.662Z,96285.44
2022-11-25T13:00:39.992Z,96294.59
2022-11-25T13:03:26.264Z,96294.59
2022-11-25T13:05:59.586Z,96288.53
2022-11-25T13:08:59.568Z,96295.72
2022-11-25T13:11:58.301Z,96293.22
2022-11-25T13:14:54.887Z,96293.31
2022-11-25T13:17:22.904Z,96288.19
2022-11-25T13:19:50.238Z,96293.63
2022-11-25T13:22:29.865Z,96294.78
2022-11-25T13:24:59.692Z,96305.44
2022-11-25T13:27:38.411Z,96310.00
2022-11-25T13:30:33.107Z,96308.31
2022-11-25T13:33:11.773Z,96318.22
2022-11-25T13:35:50.413Z,96323.72
2022-11-25T13:38:29.125Z,96321.16
2022-11-25T13:41:01.530Z,96322.16
2022-11-25T13:43:30.286Z,96325.00
2022-11-25T13:45:57.342Z,96318.09
2022-11-25T13:48:29.394Z,96326.16
2022-11-25T13:51:22.826Z,96325.53
2022-11-25T13:53:55.634Z,96333.63
2022-11-25T13:56:34.910Z,96339.06
2022-11-25T13:59:10.682Z,96338.31
2022-11-25T14:01:42.270Z,96345.44
2022-11-25T14:04:11.061Z,96342.97
2022-11-25T14:06:57.374Z,96338.50
2022-11-25T14:09:53.101Z,96338.59
2022-11-25T14:12:30.656Z,96347.22
2022-11-25T14:15:12.787Z,96349.88
2022-11-25T14:18:01.008Z,96359.66
2022-11-25T14:20:39.390Z,96367.44
2022-11-25T14:23:24.046Z,96370.72
2022-11-25T14:25:53.850Z,96389.34
2022-11-25T14:28:45.866Z,96380.75
2022-11-25T14:31:16.396Z,96382.00
2022-11-25T14:33:52.798Z,96392.84
2022-11-25T14:36:24.469Z,96392.28
2022-11-25T14:38:59.696Z,96390.91
2022-11-25T14:41:35.378Z,96401.31
2022-11-25T14:44:05.605Z,96396.97
2022-11-25T14:46:32.191Z,96402.38
2022-11-25T14:49:01.598Z,96400.78
2022-11-25T14:51:35.260Z,96403.50
2022-11-25T14:54:02.099Z,96393.38
2022-11-25T14:56:34.248Z,96408.09
2022-11-25T14:59:02.003Z,96421.38
2022-11-25T15:01:30.862Z,96415.31
2022-11-25T15:04:19.014Z,96424.13
2022-11-25T15:06:52.371Z,96433.03
2022-11-25T15:09:21.068Z,96429.53
2022-11-25T15:11:48.031Z,96426.97
2022-11-25T15:14:24.489Z,96439.41
2022-11-25T15:16:51.434Z,96439.41
2022-11-25T15:19:26.047Z,96434.31
2022-11-25T15:24:54.764Z,96447.38
2022-11-25T15:27:27.629Z,96448.34
2022-11-25T15:29:56.629Z,96451.00
2022-11-25T15:32:31.260Z,96447.59
2022-11-25T15:34:59.889Z,96452.91
2022-11-25T15:37:27.141Z,96456.50
2022-11-25T15:40:48.789Z,96475.88
2022-11-25T15:43:26.562Z,96464.47
2022-11-25T15:46:00.275Z,96473.41
2022-11-25T15:48:33.652Z,96466.56
2022-11-25T15:51:03.984Z,96479.69
2022-11-25T15:53:36.709Z,96475.28
2022-11-25T15:56:05.852Z,96481.59
2022-11-25T15:58:32.462Z,96484.25
2022-11-25T16:01:07.491Z,96483.41
2022-11-25T16:03:35.353Z,96496.78
2022-11-25T16:06:02.714Z,96488.81
2022-11-25T16:08:37.461Z,96495.94
2022-11-25T16:11:12.227Z,96494.13
2022-11-25T16:13:39.760Z,96499.53
2022-11-25T16:16:15.516Z,96497.84
2022-11-25T16:19:06.569Z,96499.53
2022-11-25T16:21:35.815Z,96513.66
2022-11-25T16:24:08.185Z,96515.47
2022-11-25T16:26:56.832Z,96524.28
2022-11-25T16:29:40.980Z,96525.25
2022-11-25T16:32:16.349Z,96528.66
2022-11-25T16:34:44.306Z,96530.56
2022-11-25T16:37:11.102Z,96534.16
2022-11-25T16:39:38.852Z,96536.72
2022-11-25T16:42:06.210Z,96535.03
2022-11-25T16:44:34.164Z,96532.72
2022-11-25T16:47:01.262Z,96546.69
2022-11-25T16:49:30.231Z,96552.75
2022-11-25T16:51:57.443Z,96560.81
2022-11-25T16:54:24.025Z,96564.34
2022-11-25T16:56:52.345Z,96573.25
2022-11-25T16:59:25.704Z,96566.03
2022-11-25T17:01:52.778Z,96574.00
2022-11-25T17:04:19.788Z,96580.28
2022-11-25T17:07:03.800Z,96589.09
2022-11-25T17:09:34.406Z,96599.44
2022-11-25T17:12:01.056Z,96608.84
2022-11-25T17:14:29.401Z,96610.34
2022-11-25T17:16:56.268Z,96620.81
2022-11-25T17:19:23.180Z,96621.47
2022-11-25T17:21:49.862Z,96620.44
2022-11-25T17:24:21.515Z,96634.41
2022-11-25T17:27:00.669Z,96630.78
2022-11-25T17:29:46.030Z,96636.00
2022-11-25T17:32:13.719Z,96644.63
2022-11-25T17:34:40.303Z,96640.16
2022-11-25T17:37:14.810Z,96646.38
2022-11-25T17:39:41.615Z,96648.91
2022-11-25T17:42:12.519Z,96652.44
2022-11-25T17:44:40.293Z,96660.19
2022-11-25T17:47:14.942Z,96661.94
2022-11-25T17:49:42.025Z,96662.03
2022-11-25T17:52:08.957Z,96667.16
2022-11-25T17:54:36.583Z,96678.63
2022-11-25T17:57:04.890Z,96685.66
2022-11-25T17:59:33.025Z,96678.53
2022-11-25T18:01:59.819Z,96682.06
2022-11-25T18:04:31.308Z,96688.31
2022-11-25T18:06:57.967Z,96684.63
2022-11-25T18:09:24.553Z,96685.47
2022-11-25T18:11:53.912Z,96691.63
2022-11-25T18:14:24.675Z,96692.47
2022-11-25T18:16:52.387Z,96689.81
2022-11-25T18:19:19.035Z,96693.44
2022-11-25T18:21:47.165Z,96699.53
2022-11-25T18:24:14.287Z,96699.53
2022-11-25T18:26:47.293Z,96707.50
2022-11-25T18:29:19.446Z,96699.59
2022-11-25T18:31:47.162Z,96706.66
2022-11-25T18:34:15.454Z,96704.00
2022-11-25T18:36:42.527Z,96710.16
2022-11-25T18:39:09.944Z,96716.41
2022-11-25T18:41:37.930Z,96721.72
2022-11-25T18:44:05.116Z,96729.72
2022-11-25T18:46:36.383Z,96736.84
2022-11-25T18:49:11.304Z,96733.41
2022-11-25T18:51:37.770Z,96736.00
2022-11-25T18:54:04.627Z,96742.06
2022-11-25T18:56:31.254Z,96741.22
2022-11-25T18:58:59.863Z,96744.81
2022-11-25T19:01:26.933Z,96743.88
2022-11-25T19:03:55.330Z,96740.34
2022-11-25T19:06:23.029Z,96744.81
2022-11-25T19:08:52.326Z,96747.56
2022-11-25T19:11:26.914Z,96750.97
2022-11-25T19:13:54.888Z,96759.06
2022-11-25T19:16:22.486Z,96765.25
2022-11-25T19:18:49.483Z,96765.25
2022-11-25T19:21:17.171Z,96767.06
2022-11-25T19:23:44.418Z,96764.47
2022-11-25T19:26:16.824Z,96779.38
2022-11-25T19:28:46.258Z,96775.03
2022-11-25T19:31:13.312Z,96781.19
2022-11-25T19:33:42.359Z,96782.03
2022-11-25T19:36:27.166Z,96786.50
2022-11-25T19:38:54.096Z,96790.09
2022-11-25T19:41:21.111Z,96794.50
2022-11-25T19:43:49.217Z,96791.91
2022-11-25T19:46:29.620Z,96798.09
2022-11-25T19:48:58.831Z,96799.91
2022-11-25T19:51:27.242Z,96797.25
2022-11-25T19:53:53.857Z,96806.06
2022-11-25T19:56:24.316Z,96811.38
2022-11-25T19:58:52.501Z,96825.66
2022-11-25T20:01:20.905Z,96833.63
2022-11-25T20:03:49.668Z,96836.28
2022-11-25T20:06:20.246Z,96842.44
2022-11-25T20:08:47.250Z,96851.38
2022-11-25T20:11:16.592Z,96851.38
2022-11-25T20:13:45.843Z,96855.06
2022-11-25T20:16:19.148Z,96856.72
2022-11-25T20:18:47.487Z,96865.53
2022-11-25T20:21:18.859Z,96873.50
2022-11-25T20:23:46.020Z,96868.19
2022-11-25T20:26:19.301Z,96873.50
2022-11-25T20:28:46.096Z,96878.81
2022-11-25T20:31:14.057Z,96875.31
2022-11-25T20:33:40.890Z,96885.97
2022-11-25T20:36:13.821Z,96884.22
2022-11-25T20:38:45.762Z,96894.88
2022-11-25T20:41:12.822Z,96894.88
2022-11-25T20:43:41.442Z,96907.31
2022-11-25T20:46:34.352Z,96905.59
2022-11-25T20:49:03.275Z,96908.25
2022-11-25T20:51:29.863Z,96903.81
2022-11-25T20:54:01.148Z,96917.09
2022-11-25T20:56:28.369Z,96924.97
2022-11-25T20:58:55.667Z,96922.31
2022-11-25T21:01:22.531Z,96923.28
2022-11-25T21:03:49.754Z,96929.44
2022-11-25T21:06:20.699Z,96927.75
2022-11-25T21:08:52.022Z,96929.59
2022-11-25T21:11:19.323Z,96938.38
2022-11-25T21:13:46.834Z,96938.38
2022-11-25T21:16:14.741Z,96954.34
2022-11-25T21:18:41.797Z,96949.94
2022-11-25T21:21:16.266Z,96955.25
2022-11-25T21:23:44.034Z,96957.91
2022-11-25T21:26:16.902Z,96964.09
2022-11-25T21:28:45.970Z,96960.75
2022-11-25T21:31:18.650Z,96965.06
2022-11-25T21:33:46.691Z,96965.13
2022-11-25T21:36:22.636Z,96966.81
2022-11-25T21:38:49.929Z,96968.63
2022-11-25T21:41:16.632Z,96976.63
2022-11-25T21:43:45.728Z,96963.53
2022-11-25T21:46:17.707Z,96966.06
2022-11-25T21:48:44.613Z,96977.66
2022-11-25T21:51:13.147Z,96971.56
2022-11-25T21:53:39.946Z,96970.72
2022-11-25T21:56:16.038Z,96970.81
2022-11-25T21:58:44.008Z,96963.97
2022-11-25T22:01:11.440Z,96969.34
2022-11-25T22:03:38.644Z,96977.13
2022-11-25T22:06:12.985Z,96971.94
2022-11-25T22:08:39.985Z,96970.22
2022-11-25T22:11:10.641Z,96980.84
2022-11-25T22:13:38.003Z,96979.16
2022-11-25T22:16:05.362Z,96988.91
2022-11-25T22:18:36.604Z,96975.00
2022-11-25T22:21:03.996Z,96986.34
2022-11-25T22:23:30.538Z,96993.44
2022-11-25T22:25:57.765Z,96990.91
2022-11-25T22:28:26.674Z,96997.13
2022-11-25T22:31:12.227Z,96993.59
2022-11-25T22:33:39.185Z,96992.72
2022-11-25T22:36:06.162Z,96989.41
2022-11-25T22:38:32.812Z,96998.16
2022-11-25T22:41:02.318Z,97000.88
2022-11-25T22:43:35.539Z,97004.41
2022-11-25T22:46:03.454Z,97002.69
2022-11-25T22:48:33.069Z,97009.78
2022-11-25T22:50:59.986Z,97007.25
2022-11-25T22:53:26.768Z,97012.56
2022-11-25T22:55:57.950Z,97017.00
2022-11-25T22:58:26.706Z,97016.22
2022-11-25T23:00:55.271Z,97017.09
2022-11-25T23:03:33.844Z,97015.38
2022-11-25T23:06:03.184Z,97018.03
2022-11-25T23:08:31.571Z,97019.00
2022-11-25T23:10:58.274Z,97020.78
2022-11-25T23:13:25.736Z,97030.56
2022-11-25T23:15:59.033Z,97024.47
2022-11-25T23:18:38.667Z,97027.97
2022-11-25T23:21:06.606Z,97032.44
2022-11-25T23:23:33.151Z,97042.22
2022-11-25T23:26:00.066Z,97039.56
2022-11-25T23:28:26.635Z,97039.47
2022-11-25T23:30:58.525Z,97052.66
2022-11-25T23:33:41.855Z,97034.75
2022-11-25T23:36:09.578Z,97061.19
2022-11-25T23:38:42.190Z,97053.97
2022-11-25T23:41:15.277Z,97062.72
2022-11-25T23:43:41.878Z,97056.41
2022-11-25T23:46:10.324Z,97067.81
2022-11-25T23:48:36.927Z,97064.22
2022-11-25T23:51:03.640Z,97064.03
2022-11-25T23:53:33.056Z,97055.97
2022-11-25T23:55:59.749Z,97066.19
2022-11-25T23:58:26.384Z,97068.47
